WMKC/KBR METAR and TAF weather

Enter ICAO airport designator
Station Type Date Time Source
WMKC METAR 2021/04/17 02:00 UTC NOAA

WMKC 170200Z VRB02KT 9999 FEW018 30/26 Q1013


Station Type Date Time Source
WMKC Decoded METAR 2021/04/17 02:00 UTC NOAA

Kota Bharu, Malaysia (WMKC) 06-10N 102-17E 5M
Apr 16, 2021 - 10:00 PM EDT / 2021.04.17 0200 UTC
Wind: Variable at 2 MPH (2 KT):0
Visibility: greater than 7 mile(s):0
Sky conditions: mostly clear
Temperature: 86 F (30 C)
Heat index: 99.3 F (37.4 C):1
Dew Point: 78 F (26 C)
Relative Humidity: 79%
Pressure (altimeter): 29.91 in. Hg (1013 hPa)
ob: WMKC 170200Z VRB02KT 9999 FEW018 30/26 Q1013
cycle: 2

Station Type Date Time Source
WMKC TAF 2021/04/16 18:00 UTC NOAA

TAF WMKC 161700Z 1618/1718 VRB03KT 9999 FEW020
BECMG 1703/1704 04006KT FEW018
BECMG 1711/1713 VRB03KT

Example: see airport list